Terminal Aerodrome Forecast
Issued by NWS

Home | Current Version | Previous Version | Text Only | Print | Product List | Glossary Off
Versions: 1 2 3 4 5 6 7 8 9 10 11 12 13 14

000
FTUS43 KMPX 171700
TAFRWF
TAF
KRWF 171737Z 1718/1818 34007KT P6SM SKC
     FM180200 VRB03KT P6SM BKN100
     FM180800 12008KT P6SM BKN070
     FM181400 13019G26KT P6SM OVC070=

USA.gov is the U.S. government's official web portal to all federal, state and local government web resources and services.